sensor_id;sensor_type;location;lat;lon;timestamp;P1;durP1;ratioP1;P2;durP2;ratioP2
10122;SDS011;5101;49.038;8.710;2023-08-21T00:01:18;5.90;;;5.40;;
10122;SDS011;5101;49.038;8.710;2023-08-21T00:03:43;5.07;;;4.57;;
10122;SDS011;5101;49.038;8.710;2023-08-21T00:06:09;5.63;;;5.13;;
10122;SDS011;5101;49.038;8.710;2023-08-21T00:08:34;5.88;;;5.35;;
10122;SDS011;5101;49.038;8.710;2023-08-21T00:10:59;5.03;;;4.63;;
10122;SDS011;5101;49.038;8.710;2023-08-21T00:13:25;6.40;;;5.00;;
10122;SDS011;5101;49.038;8.710;2023-08-21T00:15:50;6.97;;;5.18;;
10122;SDS011;5101;49.038;8.710;2023-08-21T00:18:17;5.18;;;4.72;;
10122;SDS011;5101;49.038;8.710;2023-08-21T00:20:42;6.65;;;5.20;;
10122;SDS011;5101;49.038;8.710;2023-08-21T00:23:08;5.80;;;5.18;;
10122;SDS011;5101;49.038;8.710;2023-08-21T00:25:34;5.53;;;4.93;;
10122;SDS011;5101;49.038;8.710;2023-08-21T00:27:59;5.75;;;5.15;;
10122;SDS011;5101;49.038;8.710;2023-08-21T00:30:25;5.35;;;4.82;;
10122;SDS011;5101;49.038;8.710;2023-08-21T00:32:51;5.38;;;4.97;;
10122;SDS011;5101;49.038;8.710;2023-08-21T00:35:16;6.03;;;5.53;;
10122;SDS011;5101;49.038;8.710;2023-08-21T00:37:42;6.13;;;5.53;;
10122;SDS011;5101;49.038;8.710;2023-08-21T00:40:07;5.60;;;5.03;;
10122;SDS011;5101;49.038;8.710;2023-08-21T00:42:33;5.78;;;5.00;;
10122;SDS011;5101;49.038;8.710;2023-08-21T00:44:59;6.38;;;5.63;;
10122;SDS011;5101;49.038;8.710;2023-08-21T00:47:24;7.43;;;4.80;;
10122;SDS011;5101;49.038;8.710;2023-08-21T00:49:50;7.18;;;4.93;;
10122;SDS011;5101;49.038;8.710;2023-08-21T00:52:16;5.30;;;4.70;;
10122;SDS011;5101;49.038;8.710;2023-08-21T00:54:42;5.82;;;4.78;;
10122;SDS011;5101;49.038;8.710;2023-08-21T00:57:08;5.82;;;4.70;;
10122;SDS011;5101;49.038;8.710;2023-08-21T00:59:35;5.25;;;4.85;;
10122;SDS011;5101;49.038;8.710;2023-08-21T01:02:01;8.18;;;5.53;;
10122;SDS011;5101;49.038;8.710;2023-08-21T01:04:27;5.75;;;4.90;;
10122;SDS011;5101;49.038;8.710;2023-08-21T01:06:52;5.75;;;5.32;;
10122;SDS011;5101;49.038;8.710;2023-08-21T01:09:25;10.52;;;5.50;;
10122;SDS011;5101;49.038;8.710;2023-08-21T01:12:04;5.25;;;4.75;;
10122;SDS011;5101;49.038;8.710;2023-08-21T01:17:06;5.45;;;5.10;;
10122;SDS011;5101;49.038;8.710;2023-08-21T01:19:36;6.65;;;4.95;;
10122;SDS011;5101;49.038;8.710;2023-08-21T01:22:04;7.32;;;5.35;;
10122;SDS011;5101;49.038;8.710;2023-08-21T01:24:29;6.22;;;5.63;;
10122;SDS011;5101;49.038;8.710;2023-08-21T01:26:55;6.07;;;5.43;;
10122;SDS011;5101;49.038;8.710;2023-08-21T01:29:20;5.60;;;5.10;;
10122;SDS011;5101;49.038;8.710;2023-08-21T01:31:54;5.43;;;4.95;;
10122;SDS011;5101;49.038;8.710;2023-08-21T01:34:25;5.75;;;5.25;;
10122;SDS011;5101;49.038;8.710;2023-08-21T01:36:53;5.90;;;5.30;;
10122;SDS011;5101;49.038;8.710;2023-08-21T01:39:19;5.72;;;5.22;;
10122;SDS011;5101;49.038;8.710;2023-08-21T01:41:45;5.60;;;5.20;;
10122;SDS011;5101;49.038;8.710;2023-08-21T01:44:11;7.47;;;5.65;;
10122;SDS011;5101;49.038;8.710;2023-08-21T01:46:36;6.00;;;5.10;;
10122;SDS011;5101;49.038;8.710;2023-08-21T01:49:02;5.63;;;5.07;;
10122;SDS011;5101;49.038;8.710;2023-08-21T01:51:27;6.07;;;5.57;;
10122;SDS011;5101;49.038;8.710;2023-08-21T01:53:53;7.55;;;5.50;;
10122;SDS011;5101;49.038;8.710;2023-08-21T01:56:18;5.85;;;5.38;;
10122;SDS011;5101;49.038;8.710;2023-08-21T01:58:44;5.18;;;4.75;;
10122;SDS011;5101;49.038;8.710;2023-08-21T02:01:09;5.60;;;5.20;;
10122;SDS011;5101;49.038;8.710;2023-08-21T02:03:34;5.97;;;5.38;;
10122;SDS011;5101;49.038;8.710;2023-08-21T02:06:00;7.07;;;5.60;;
10122;SDS011;5101;49.038;8.710;2023-08-21T02:08:32;6.13;;;5.03;;
10122;SDS011;5101;49.038;8.710;2023-08-21T02:10:58;6.18;;;5.57;;
10122;SDS011;5101;49.038;8.710;2023-08-21T02:13:24;6.38;;;5.75;;
10122;SDS011;5101;49.038;8.710;2023-08-21T02:15:49;6.53;;;5.90;;
10122;SDS011;5101;49.038;8.710;2023-08-21T02:18:15;6.90;;;5.60;;
10122;SDS011;5101;49.038;8.710;2023-08-21T02:20:41;6.85;;;6.15;;
10122;SDS011;5101;49.038;8.710;2023-08-21T02:23:07;7.40;;;6.60;;
10122;SDS011;5101;49.038;8.710;2023-08-21T02:25:32;7.20;;;5.75;;
10122;SDS011;5101;49.038;8.710;2023-08-21T02:27:58;6.40;;;5.80;;
10122;SDS011;5101;49.038;8.710;2023-08-21T02:30:23;6.65;;;5.53;;
10122;SDS011;5101;49.038;8.710;2023-08-21T02:32:50;8.85;;;5.50;;
10122;SDS011;5101;49.038;8.710;2023-08-21T02:35:19;6.18;;;5.68;;
10122;SDS011;5101;49.038;8.710;2023-08-21T02:37:45;5.90;;;5.30;;
10122;SDS011;5101;49.038;8.710;2023-08-21T02:40:11;5.95;;;5.45;;
10122;SDS011;5101;49.038;8.710;2023-08-21T02:42:36;6.82;;;5.45;;
10122;SDS011;5101;49.038;8.710;2023-08-21T02:45:02;5.90;;;5.03;;
10122;SDS011;5101;49.038;8.710;2023-08-21T02:47:33;5.93;;;5.10;;
10122;SDS011;5101;49.038;8.710;2023-08-21T02:50:05;6.05;;;5.40;;
10122;SDS011;5101;49.038;8.710;2023-08-21T02:52:33;6.13;;;5.53;;
10122;SDS011;5101;49.038;8.710;2023-08-21T02:54:59;5.65;;;5.25;;
10122;SDS011;5101;49.038;8.710;2023-08-21T02:57:26;6.63;;;5.28;;
10122;SDS011;5101;49.038;8.710;2023-08-21T02:59:52;5.78;;;5.28;;
10122;SDS011;5101;49.038;8.710;2023-08-21T03:02:18;5.72;;;5.03;;
10122;SDS011;5101;49.038;8.710;2023-08-21T03:04:44;5.90;;;5.15;;
10122;SDS011;5101;49.038;8.710;2023-08-21T03:07:10;5.60;;;5.03;;
10122;SDS011;5101;49.038;8.710;2023-08-21T03:09:36;5.57;;;5.07;;
10122;SDS011;5101;49.038;8.710;2023-08-21T03:12:02;5.75;;;5.28;;
10122;SDS011;5101;49.038;8.710;2023-08-21T03:14:28;6.18;;;5.07;;
10122;SDS011;5101;49.038;8.710;2023-08-21T03:16:54;6.07;;;5.47;;
10122;SDS011;5101;49.038;8.710;2023-08-21T03:19:19;6.68;;;5.30;;
10122;SDS011;5101;49.038;8.710;2023-08-21T03:21:45;5.80;;;5.40;;
10122;SDS011;5101;49.038;8.710;2023-08-21T03:24:10;5.15;;;4.68;;
10122;SDS011;5101;49.038;8.710;2023-08-21T03:26:36;5.63;;;5.13;;
10122;SDS011;5101;49.038;8.710;2023-08-21T03:29:01;5.60;;;5.10;;
10122;SDS011;5101;49.038;8.710;2023-08-21T03:31:27;6.13;;;5.38;;
10122;SDS011;5101;49.038;8.710;2023-08-21T03:33:54;5.82;;;5.32;;
10122;SDS011;5101;49.038;8.710;2023-08-21T03:36:19;5.55;;;5.05;;
10122;SDS011;5101;49.038;8.710;2023-08-21T03:38:45;5.53;;;5.03;;
10122;SDS011;5101;49.038;8.710;2023-08-21T03:41:11;6.38;;;5.70;;
10122;SDS011;5101;49.038;8.710;2023-08-21T03:43:36;8.02;;;5.57;;
10122;SDS011;5101;49.038;8.710;2023-08-21T03:46:02;5.30;;;4.90;;
10122;SDS011;5101;49.038;8.710;2023-08-21T03:48:28;6.22;;;5.70;;
10122;SDS011;5101;49.038;8.710;2023-08-21T03:50:54;6.32;;;5.68;;
10122;SDS011;5101;49.038;8.710;2023-08-21T03:53:19;7.05;;;5.18;;
10122;SDS011;5101;49.038;8.710;2023-08-21T03:55:45;5.55;;;5.05;;
10122;SDS011;5101;49.038;8.710;2023-08-21T03:58:10;5.55;;;5.05;;
10122;SDS011;5101;49.038;8.710;2023-08-21T04:00:37;9.68;;;5.57;;
10122;SDS011;5101;49.038;8.710;2023-08-21T04:03:02;6.00;;;5.03;;
10122;SDS011;5101;49.038;8.710;2023-08-21T04:05:28;6.28;;;5.45;;
10122;SDS011;5101;49.038;8.710;2023-08-21T04:07:53;6.82;;;5.63;;
10122;SDS011;5101;49.038;8.710;2023-08-21T04:10:19;6.70;;;5.70;;
10122;SDS011;5101;49.038;8.710;2023-08-21T04:12:44;6.07;;;5.57;;
10122;SDS011;5101;49.038;8.710;2023-08-21T04:15:10;5.95;;;5.38;;
10122;SDS011;5101;49.038;8.710;2023-08-21T04:17:35;5.82;;;5.22;;
10122;SDS011;5101;49.038;8.710;2023-08-21T04:20:02;6.60;;;5.28;;
10122;SDS011;5101;49.038;8.710;2023-08-21T04:22:27;5.82;;;5.18;;
10122;SDS011;5101;49.038;8.710;2023-08-21T04:24:53;6.05;;;5.55;;
10122;SDS011;5101;49.038;8.710;2023-08-21T04:27:18;7.18;;;5.60;;
10122;SDS011;5101;49.038;8.710;2023-08-21T04:29:44;6.30;;;5.70;;
10122;SDS011;5101;49.038;8.710;2023-08-21T04:32:09;6.85;;;6.00;;
10122;SDS011;5101;49.038;8.710;2023-08-21T04:34:35;6.40;;;5.70;;
10122;SDS011;5101;49.038;8.710;2023-08-21T04:37:01;6.88;;;6.10;;
10122;SDS011;5101;49.038;8.710;2023-08-21T04:39:26;6.28;;;5.70;;
10122;SDS011;5101;49.038;8.710;2023-08-21T04:41:52;6.50;;;5.90;;
10122;SDS011;5101;49.038;8.710;2023-08-21T04:44:21;8.50;;;6.53;;
10122;SDS011;5101;49.038;8.710;2023-08-21T04:46:47;7.57;;;6.78;;
10122;SDS011;5101;49.038;8.710;2023-08-21T04:49:15;6.38;;;5.78;;
10122;SDS011;5101;49.038;8.710;2023-08-21T04:51:41;6.50;;;5.95;;
10122;SDS011;5101;49.038;8.710;2023-08-21T04:54:06;6.53;;;5.95;;
10122;SDS011;5101;49.038;8.710;2023-08-21T04:56:32;6.15;;;5.65;;
10122;SDS011;5101;49.038;8.710;2023-08-21T04:58:57;8.50;;;5.95;;
10122;SDS011;5101;49.038;8.710;2023-08-21T05:01:23;7.68;;;6.10;;
10122;SDS011;5101;49.038;8.710;2023-08-21T05:03:50;8.18;;;5.75;;
10122;SDS011;5101;49.038;8.710;2023-08-21T05:06:16;6.68;;;6.07;;
10122;SDS011;5101;49.038;8.710;2023-08-21T05:08:41;7.03;;;6.10;;
10122;SDS011;5101;49.038;8.710;2023-08-21T05:11:07;7.18;;;6.22;;
10122;SDS011;5101;49.038;8.710;2023-08-21T05:13:33;6.88;;;6.28;;
10122;SDS011;5101;49.038;8.710;2023-08-21T05:15:58;7.43;;;6.20;;
10122;SDS011;5101;49.038;8.710;2023-08-21T05:18:24;7.32;;;6.50;;
10122;SDS011;5101;49.038;8.710;2023-08-21T05:20:53;6.90;;;6.18;;
10122;SDS011;5101;49.038;8.710;2023-08-21T05:23:20;7.13;;;5.78;;
10122;SDS011;5101;49.038;8.710;2023-08-21T05:25:48;10.02;;;6.68;;
10122;SDS011;5101;49.038;8.710;2023-08-21T05:28:14;6.47;;;5.72;;
10122;SDS011;5101;49.038;8.710;2023-08-21T05:30:40;6.47;;;5.97;;
10122;SDS011;5101;49.038;8.710;2023-08-21T05:33:05;7.93;;;6.78;;
10122;SDS011;5101;49.038;8.710;2023-08-21T05:35:34;6.60;;;6.00;;
10122;SDS011;5101;49.038;8.710;2023-08-21T05:38:03;8.95;;;6.45;;
10122;SDS011;5101;49.038;8.710;2023-08-21T05:40:29;8.70;;;6.60;;
10122;SDS011;5101;49.038;8.710;2023-08-21T05:42:55;6.72;;;6.07;;
10122;SDS011;5101;49.038;8.710;2023-08-21T05:45:20;7.80;;;6.60;;
10122;SDS011;5101;49.038;8.710;2023-08-21T05:47:46;6.63;;;6.03;;
10122;SDS011;5101;49.038;8.710;2023-08-21T05:50:11;7.20;;;6.32;;
10122;SDS011;5101;49.038;8.710;2023-08-21T05:52:37;7.32;;;6.10;;
10122;SDS011;5101;49.038;8.710;2023-08-21T05:55:02;8.07;;;6.60;;
10122;SDS011;5101;49.038;8.710;2023-08-21T05:57:29;6.85;;;6.25;;
10122;SDS011;5101;49.038;8.710;2023-08-21T05:59:55;6.50;;;5.90;;
10122;SDS011;5101;49.038;8.710;2023-08-21T06:02:20;7.55;;;5.80;;
10122;SDS011;5101;49.038;8.710;2023-08-21T06:04:46;8.55;;;6.35;;
10122;SDS011;5101;49.038;8.710;2023-08-21T06:07:11;6.70;;;5.80;;
10122;SDS011;5101;49.038;8.710;2023-08-21T06:09:37;6.30;;;5.70;;
10122;SDS011;5101;49.038;8.710;2023-08-21T06:12:05;5.80;;;5.20;;
10122;SDS011;5101;49.038;8.710;2023-08-21T06:14:31;7.10;;;5.07;;
10122;SDS011;5101;49.038;8.710;2023-08-21T06:17:00;6.18;;;5.45;;
10122;SDS011;5101;49.038;8.710;2023-08-21T06:19:27;6.20;;;5.50;;
10122;SDS011;5101;49.038;8.710;2023-08-21T06:21:54;7.50;;;5.10;;
10122;SDS011;5101;49.038;8.710;2023-08-21T06:24:20;8.85;;;5.30;;
10122;SDS011;5101;49.038;8.710;2023-08-21T06:26:45;5.80;;;5.05;;
10122;SDS011;5101;49.038;8.710;2023-08-21T06:29:11;5.22;;;4.82;;
10122;SDS011;5101;49.038;8.710;2023-08-21T06:31:36;5.75;;;4.90;;
10122;SDS011;5101;49.038;8.710;2023-08-21T06:34:02;7.15;;;5.05;;
10122;SDS011;5101;49.038;8.710;2023-08-21T06:36:28;4.65;;;4.35;;
10122;SDS011;5101;49.038;8.710;2023-08-21T06:38:54;6.85;;;4.60;;
10122;SDS011;5101;49.038;8.710;2023-08-21T06:41:20;4.95;;;4.35;;
10122;SDS011;5101;49.038;8.710;2023-08-21T06:43:45;7.75;;;4.18;;
10122;SDS011;5101;49.038;8.710;2023-08-21T06:46:11;5.30;;;4.88;;
10122;SDS011;5101;49.038;8.710;2023-08-21T06:48:38;5.35;;;4.72;;
10122;SDS011;5101;49.038;8.710;2023-08-21T06:51:05;5.32;;;4.82;;
10122;SDS011;5101;49.038;8.710;2023-08-21T06:53:31;5.07;;;4.68;;
10122;SDS011;5101;49.038;8.710;2023-08-21T06:55:56;5.53;;;4.95;;
10122;SDS011;5101;49.038;8.710;2023-08-21T06:58:22;6.93;;;5.90;;
10122;SDS011;5101;49.038;8.710;2023-08-21T07:00:48;5.68;;;5.18;;
10122;SDS011;5101;49.038;8.710;2023-08-21T07:03:13;9.25;;;4.90;;
10122;SDS011;5101;49.038;8.710;2023-08-21T07:05:39;4.80;;;4.40;;
10122;SDS011;5101;49.038;8.710;2023-08-21T07:08:05;6.63;;;5.22;;
10122;SDS011;5101;49.038;8.710;2023-08-21T07:10:35;7.38;;;4.90;;
10122;SDS011;5101;49.038;8.710;2023-08-21T07:13:02;6.25;;;5.00;;
10122;SDS011;5101;49.038;8.710;2023-08-21T07:15:28;5.82;;;4.45;;
10122;SDS011;5101;49.038;8.710;2023-08-21T07:17:54;4.88;;;4.47;;
10122;SDS011;5101;49.038;8.710;2023-08-21T07:20:20;4.47;;;4.07;;
10122;SDS011;5101;49.038;8.710;2023-08-21T07:22:46;7.47;;;4.82;;
10122;SDS011;5101;49.038;8.710;2023-08-21T07:25:12;4.80;;;4.40;;
10122;SDS011;5101;49.038;8.710;2023-08-21T07:27:37;6.70;;;5.00;;
10122;SDS011;5101;49.038;8.710;2023-08-21T07:30:03;5.75;;;4.30;;
10122;SDS011;5101;49.038;8.710;2023-08-21T07:32:30;6.70;;;4.90;;
10122;SDS011;5101;49.038;8.710;2023-08-21T07:34:55;5.30;;;4.47;;
10122;SDS011;5101;49.038;8.710;2023-08-21T07:37:21;5.30;;;4.90;;
10122;SDS011;5101;49.038;8.710;2023-08-21T07:39:46;4.45;;;4.05;;
10122;SDS011;5101;49.038;8.710;2023-08-21T07:42:12;5.05;;;4.10;;
10122;SDS011;5101;49.038;8.710;2023-08-21T07:44:38;4.65;;;4.10;;
10122;SDS011;5101;49.038;8.710;2023-08-21T07:47:04;4.50;;;4.10;;
10122;SDS011;5101;49.038;8.710;2023-08-21T07:49:30;5.28;;;4.50;;
10122;SDS011;5101;49.038;8.710;2023-08-21T07:51:57;5.57;;;4.00;;
10122;SDS011;5101;49.038;8.710;2023-08-21T07:54:22;3.97;;;3.65;;
10122;SDS011;5101;49.038;8.710;2023-08-21T07:56:49;7.82;;;4.00;;
10122;SDS011;5101;49.038;8.710;2023-08-21T07:59:15;8.43;;;4.20;;
10122;SDS011;5101;49.038;8.710;2023-08-21T08:01:41;4.35;;;3.95;;
10122;SDS011;5101;49.038;8.710;2023-08-21T08:04:06;4.68;;;4.28;;
10122;SDS011;5101;49.038;8.710;2023-08-21T08:06:32;6.95;;;4.60;;
10122;SDS011;5101;49.038;8.710;2023-08-21T08:08:58;4.55;;;3.85;;
10122;SDS011;5101;49.038;8.710;2023-08-21T08:11:23;5.60;;;4.50;;
10122;SDS011;5101;49.038;8.710;2023-08-21T08:13:49;4.70;;;4.40;;
10122;SDS011;5101;49.038;8.710;2023-08-21T08:16:14;6.03;;;4.40;;
10122;SDS011;5101;49.038;8.710;2023-08-21T08:18:41;4.53;;;4.20;;
10122;SDS011;5101;49.038;8.710;2023-08-21T08:21:07;6.85;;;4.53;;
10122;SDS011;5101;49.038;8.710;2023-08-21T08:23:32;4.90;;;4.50;;
10122;SDS011;5101;49.038;8.710;2023-08-21T08:25:58;5.25;;;4.53;;
10122;SDS011;5101;49.038;8.710;2023-08-21T08:28:23;5.20;;;4.18;;
10122;SDS011;5101;49.038;8.710;2023-08-21T08:30:49;6.90;;;4.15;;
10122;SDS011;5101;49.038;8.710;2023-08-21T08:33:15;4.68;;;4.30;;
10122;SDS011;5101;49.038;8.710;2023-08-21T08:35:40;4.50;;;4.10;;
10122;SDS011;5101;49.038;8.710;2023-08-21T08:38:06;4.65;;;4.22;;
10122;SDS011;5101;49.038;8.710;2023-08-21T08:40:31;6.25;;;4.55;;
10122;SDS011;5101;49.038;8.710;2023-08-21T08:42:58;5.05;;;4.63;;
10122;SDS011;5101;49.038;8.710;2023-08-21T08:45:28;4.93;;;4.53;;
10122;SDS011;5101;49.038;8.710;2023-08-21T08:48:00;4.30;;;4.00;;
10122;SDS011;5101;49.038;8.710;2023-08-21T08:50:30;7.13;;;4.60;;
10122;SDS011;5101;49.038;8.710;2023-08-21T08:52:57;4.80;;;4.40;;
10122;SDS011;5101;49.038;8.710;2023-08-21T08:55:24;6.13;;;4.55;;
10122;SDS011;5101;49.038;8.710;2023-08-21T08:57:51;6.05;;;4.43;;
10122;SDS011;5101;49.038;8.710;2023-08-21T09:00:17;6.40;;;4.32;;
10122;SDS011;5101;49.038;8.710;2023-08-21T09:02:43;6.65;;;4.57;;
10122;SDS011;5101;49.038;8.710;2023-08-21T09:05:09;6.80;;;4.93;;
10122;SDS011;5101;49.038;8.710;2023-08-21T09:07:35;6.10;;;4.50;;
10122;SDS011;5101;49.038;8.710;2023-08-21T09:10:01;8.32;;;4.10;;
10122;SDS011;5101;49.038;8.710;2023-08-21T09:12:28;4.80;;;3.92;;
10122;SDS011;5101;49.038;8.710;2023-08-21T09:14:57;6.32;;;4.68;;
10122;SDS011;5101;49.038;8.710;2023-08-21T09:17:23;5.18;;;4.30;;
10122;SDS011;5101;49.038;8.710;2023-08-21T09:19:50;6.75;;;4.38;;
10122;SDS011;5101;49.038;8.710;2023-08-21T09:22:16;6.57;;;4.07;;
10122;SDS011;5101;49.038;8.710;2023-08-21T09:27:36;5.22;;;4.32;;
10122;SDS011;5101;49.038;8.710;2023-08-21T09:30:03;6.13;;;4.90;;
10122;SDS011;5101;49.038;8.710;2023-08-21T09:32:29;4.20;;;3.70;;
10122;SDS011;5101;49.038;8.710;2023-08-21T09:34:55;4.40;;;4.00;;
10122;SDS011;5101;49.038;8.710;2023-08-21T09:37:21;3.97;;;3.72;;
10122;SDS011;5101;49.038;8.710;2023-08-21T09:39:54;5.30;;;4.07;;
10122;SDS011;5101;49.038;8.710;2023-08-21T09:42:20;4.55;;;4.15;;
10122;SDS011;5101;49.038;8.710;2023-08-21T09:44:46;3.75;;;3.50;;
10122;SDS011;5101;49.038;8.710;2023-08-21T09:47:16;7.30;;;3.97;;
10122;SDS011;5101;49.038;8.710;2023-08-21T09:49:42;7.43;;;4.13;;
10122;SDS011;5101;49.038;8.710;2023-08-21T09:52:08;5.22;;;4.00;;
10122;SDS011;5101;49.038;8.710;2023-08-21T09:54:35;4.38;;;3.97;;
10122;SDS011;5101;49.038;8.710;2023-08-21T09:57:03;5.70;;;4.15;;
10122;SDS011;5101;49.038;8.710;2023-08-21T09:59:29;4.65;;;3.58;;
10122;SDS011;5101;49.038;8.710;2023-08-21T10:01:59;5.88;;;3.70;;
10122;SDS011;5101;49.038;8.710;2023-08-21T10:04:26;4.03;;;3.67;;
10122;SDS011;5101;49.038;8.710;2023-08-21T10:06:53;6.05;;;4.13;;
10122;SDS011;5101;49.038;8.710;2023-08-21T10:09:21;5.53;;;4.10;;
10122;SDS011;5101;49.038;8.710;2023-08-21T10:11:48;4.10;;;3.65;;
10122;SDS011;5101;49.038;8.710;2023-08-21T10:14:15;5.40;;;3.67;;
10122;SDS011;5101;49.038;8.710;2023-08-21T10:16:41;4.22;;;3.92;;
10122;SDS011;5101;49.038;8.710;2023-08-21T10:19:07;3.83;;;3.53;;
10122;SDS011;5101;49.038;8.710;2023-08-21T10:21:34;4.72;;;3.67;;
10122;SDS011;5101;49.038;8.710;2023-08-21T10:24:02;4.07;;;3.67;;
10122;SDS011;5101;49.038;8.710;2023-08-21T10:26:27;5.07;;;3.90;;
10122;SDS011;5101;49.038;8.710;2023-08-21T10:29:00;3.33;;;3.05;;
10122;SDS011;5101;49.038;8.710;2023-08-21T10:31:36;6.53;;;4.40;;
10122;SDS011;5101;49.038;8.710;2023-08-21T10:34:06;5.93;;;4.00;;
10122;SDS011;5101;49.038;8.710;2023-08-21T10:39:14;5.15;;;3.90;;
10122;SDS011;5101;49.038;8.710;2023-08-21T10:41:54;4.60;;;3.95;;
10122;SDS011;5101;49.038;8.710;2023-08-21T10:44:33;4.70;;;3.63;;
10122;SDS011;5101;49.038;8.710;2023-08-21T10:47:15;4.20;;;3.50;;
10122;SDS011;5101;49.038;8.710;2023-08-21T10:49:45;5.20;;;3.42;;
10122;SDS011;5101;49.038;8.710;2023-08-21T10:52:12;3.85;;;3.55;;
10122;SDS011;5101;49.038;8.710;2023-08-21T10:54:48;4.15;;;3.72;;
10122;SDS011;5101;49.038;8.710;2023-08-21T10:57:15;4.65;;;3.90;;
10122;SDS011;5101;49.038;8.710;2023-08-21T11:02:37;7.07;;;3.70;;
10122;SDS011;5101;49.038;8.710;2023-08-21T11:05:04;3.97;;;3.63;;
10122;SDS011;5101;49.038;8.710;2023-08-21T11:07:34;4.78;;;3.58;;
10122;SDS011;5101;49.038;8.710;2023-08-21T11:10:11;3.92;;;3.42;;
10122;SDS011;5101;49.038;8.710;2023-08-21T11:12:38;4.70;;;3.75;;
10122;SDS011;5101;49.038;8.710;2023-08-21T11:15:16;4.60;;;4.15;;
10122;SDS011;5101;49.038;8.710;2023-08-21T11:17:42;4.25;;;3.92;;
10122;SDS011;5101;49.038;8.710;2023-08-21T11:20:15;4.03;;;3.72;;
10122;SDS011;5101;49.038;8.710;2023-08-21T11:22:40;4.00;;;3.70;;
10122;SDS011;5101;49.038;8.710;2023-08-21T11:25:06;3.97;;;3.67;;
10122;SDS011;5101;49.038;8.710;2023-08-21T11:27:32;3.58;;;3.33;;
10122;SDS011;5101;49.038;8.710;2023-08-21T11:29:57;5.10;;;3.70;;
10122;SDS011;5101;49.038;8.710;2023-08-21T11:32:25;4.70;;;3.35;;
10122;SDS011;5101;49.038;8.710;2023-08-21T11:34:54;3.85;;;3.42;;
10122;SDS011;5101;49.038;8.710;2023-08-21T11:37:21;4.30;;;3.40;;
10122;SDS011;5101;49.038;8.710;2023-08-21T11:39:52;4.00;;;3.65;;
10122;SDS011;5101;49.038;8.710;2023-08-21T11:42:31;4.60;;;3.70;;
10122;SDS011;5101;49.038;8.710;2023-08-21T11:44:58;5.22;;;3.03;;
10122;SDS011;5101;49.038;8.710;2023-08-21T11:47:29;4.32;;;3.45;;
10122;SDS011;5101;49.038;8.710;2023-08-21T11:49:57;4.88;;;3.67;;
10122;SDS011;5101;49.038;8.710;2023-08-21T11:52:27;3.60;;;3.33;;
10122;SDS011;5101;49.038;8.710;2023-08-21T11:54:56;5.72;;;4.03;;
10122;SDS011;5101;49.038;8.710;2023-08-21T11:57:22;5.80;;;3.90;;
10122;SDS011;5101;49.038;8.710;2023-08-21T11:59:51;3.88;;;3.33;;
10122;SDS011;5101;49.038;8.710;2023-08-21T12:02:19;4.15;;;3.38;;
10122;SDS011;5101;49.038;8.710;2023-08-21T12:05:03;3.92;;;3.30;;
10122;SDS011;5101;49.038;8.710;2023-08-21T12:07:30;4.07;;;3.35;;
10122;SDS011;5101;49.038;8.710;2023-08-21T12:09:57;4.00;;;3.60;;
10122;SDS011;5101;49.038;8.710;2023-08-21T12:12:23;5.70;;;3.55;;
10122;SDS011;5101;49.038;8.710;2023-08-21T12:14:49;3.67;;;3.38;;
10122;SDS011;5101;49.038;8.710;2023-08-21T12:17:14;4.63;;;3.58;;
10122;SDS011;5101;49.038;8.710;2023-08-21T12:19:40;5.18;;;3.80;;
10122;SDS011;5101;49.038;8.710;2023-08-21T12:22:06;4.68;;;3.22;;
10122;SDS011;5101;49.038;8.710;2023-08-21T12:24:32;5.20;;;3.60;;
10122;SDS011;5101;49.038;8.710;2023-08-21T12:26:57;3.60;;;3.30;;
10122;SDS011;5101;49.038;8.710;2023-08-21T12:29:23;3.97;;;3.42;;
10122;SDS011;5101;49.038;8.710;2023-08-21T12:31:49;5.28;;;3.42;;
10122;SDS011;5101;49.038;8.710;2023-08-21T12:34:14;3.85;;;3.55;;
10122;SDS011;5101;49.038;8.710;2023-08-21T12:36:39;4.55;;;3.28;;
10122;SDS011;5101;49.038;8.710;2023-08-21T12:39:06;6.15;;;3.40;;
10122;SDS011;5101;49.038;8.710;2023-08-21T12:41:32;4.43;;;3.42;;
10122;SDS011;5101;49.038;8.710;2023-08-21T12:43:58;3.72;;;3.38;;
10122;SDS011;5101;49.038;8.710;2023-08-21T12:46:24;4.80;;;3.50;;
10122;SDS011;5101;49.038;8.710;2023-08-21T12:48:52;5.13;;;3.50;;
10122;SDS011;5101;49.038;8.710;2023-08-21T12:51:18;7.65;;;3.67;;
10122;SDS011;5101;49.038;8.710;2023-08-21T12:53:43;4.18;;;3.50;;
10122;SDS011;5101;49.038;8.710;2023-08-21T12:56:09;4.63;;;3.70;;
10122;SDS011;5101;49.038;8.710;2023-08-21T12:58:34;3.47;;;3.17;;
10122;SDS011;5101;49.038;8.710;2023-08-21T13:01:00;3.30;;;3.00;;
10122;SDS011;5101;49.038;8.710;2023-08-21T13:03:25;3.70;;;3.33;;
10122;SDS011;5101;49.038;8.710;2023-08-21T13:05:51;3.53;;;3.20;;
10122;SDS011;5101;49.038;8.710;2023-08-21T13:08:16;5.47;;;3.10;;
10122;SDS011;5101;49.038;8.710;2023-08-21T13:10:42;3.92;;;3.20;;
10122;SDS011;5101;49.038;8.710;2023-08-21T13:13:07;5.68;;;3.58;;
10122;SDS011;5101;49.038;8.710;2023-08-21T13:15:33;4.53;;;3.60;;
10122;SDS011;5101;49.038;8.710;2023-08-21T13:17:58;4.55;;;3.45;;
10122;SDS011;5101;49.038;8.710;2023-08-21T13:20:24;7.72;;;3.80;;
10122;SDS011;5101;49.038;8.710;2023-08-21T13:22:50;4.65;;;3.40;;
10122;SDS011;5101;49.038;8.710;2023-08-21T13:25:20;4.45;;;3.72;;
10122;SDS011;5101;49.038;8.710;2023-08-21T13:27:47;3.85;;;2.97;;
10122;SDS011;5101;49.038;8.710;2023-08-21T13:30:13;4.13;;;3.03;;
10122;SDS011;5101;49.038;8.710;2023-08-21T13:32:39;3.58;;;3.28;;
10122;SDS011;5101;49.038;8.710;2023-08-21T13:35:04;3.40;;;3.10;;
10122;SDS011;5101;49.038;8.710;2023-08-21T13:37:34;3.50;;;3.03;;
10122;SDS011;5101;49.038;8.710;2023-08-21T13:40:00;4.57;;;2.80;;
10122;SDS011;5101;49.038;8.710;2023-08-21T13:42:33;3.28;;;2.83;;
10122;SDS011;5101;49.038;8.710;2023-08-21T13:45:02;3.42;;;2.90;;
10122;SDS011;5101;49.038;8.710;2023-08-21T13:47:28;4.03;;;2.40;;
10122;SDS011;5101;49.038;8.710;2023-08-21T13:49:54;4.10;;;2.47;;
10122;SDS011;5101;49.038;8.710;2023-08-21T13:52:20;6.00;;;2.85;;
10122;SDS011;5101;49.038;8.710;2023-08-21T13:54:46;2.70;;;2.55;;
10122;SDS011;5101;49.038;8.710;2023-08-21T13:57:12;6.60;;;2.58;;
10122;SDS011;5101;49.038;8.710;2023-08-21T13:59:37;3.03;;;2.70;;
10122;SDS011;5101;49.038;8.710;2023-08-21T14:02:03;4.55;;;2.35;;
10122;SDS011;5101;49.038;8.710;2023-08-21T14:04:29;2.78;;;2.58;;
10122;SDS011;5101;49.038;8.710;2023-08-21T14:06:57;3.85;;;3.10;;
10122;SDS011;5101;49.038;8.710;2023-08-21T14:09:22;6.07;;;3.00;;
10122;SDS011;5101;49.038;8.710;2023-08-21T14:11:48;3.40;;;3.10;;
10122;SDS011;5101;49.038;8.710;2023-08-21T14:14:13;3.22;;;3.00;;
10122;SDS011;5101;49.038;8.710;2023-08-21T14:16:39;3.35;;;3.05;;
10122;SDS011;5101;49.038;8.710;2023-08-21T14:19:04;3.22;;;2.95;;
10122;SDS011;5101;49.038;8.710;2023-08-21T14:21:30;3.40;;;3.10;;
10122;SDS011;5101;49.038;8.710;2023-08-21T14:23:55;3.35;;;2.90;;
10122;SDS011;5101;49.038;8.710;2023-08-21T14:26:21;5.68;;;3.00;;
10122;SDS011;5101;49.038;8.710;2023-08-21T14:28:46;2.85;;;2.65;;
10122;SDS011;5101;49.038;8.710;2023-08-21T14:31:15;3.88;;;3.10;;
10122;SDS011;5101;49.038;8.710;2023-08-21T14:33:41;5.38;;;2.85;;
10122;SDS011;5101;49.038;8.710;2023-08-21T14:36:07;4.80;;;2.70;;
10122;SDS011;5101;49.038;8.710;2023-08-21T14:38:33;3.40;;;3.20;;
10122;SDS011;5101;49.038;8.710;2023-08-21T14:40:59;3.53;;;2.97;;
10122;SDS011;5101;49.038;8.710;2023-08-21T14:43:25;3.63;;;3.33;;
10122;SDS011;5101;49.038;8.710;2023-08-21T14:45:51;4.38;;;3.58;;
10122;SDS011;5101;49.038;8.710;2023-08-21T14:48:16;3.63;;;3.20;;
10122;SDS011;5101;49.038;8.710;2023-08-21T14:50:42;3.92;;;3.30;;
10122;SDS011;5101;49.038;8.710;2023-08-21T14:53:08;3.40;;;2.90;;
10122;SDS011;5101;49.038;8.710;2023-08-21T14:55:33;4.05;;;3.03;;
10122;SDS011;5101;49.038;8.710;2023-08-21T14:57:59;5.00;;;3.35;;
10122;SDS011;5101;49.038;8.710;2023-08-21T15:00:30;5.13;;;3.28;;
10122;SDS011;5101;49.038;8.710;2023-08-21T15:02:56;3.35;;;3.03;;
10122;SDS011;5101;49.038;8.710;2023-08-21T15:05:21;3.88;;;2.90;;
10122;SDS011;5101;49.038;8.710;2023-08-21T15:07:47;5.55;;;3.47;;